createdAt,value
2023-04-22T00:00:50.178Z,168.24
2023-04-22T00:01:50.163Z,168.05
2023-04-22T00:02:50.260Z,174.69
2023-04-22T00:03:50.347Z,174.26
2023-04-22T00:04:50.405Z,174.54
2023-04-22T00:05:50.303Z,176.33
2023-04-22T00:06:50.198Z,176.94
2023-04-22T00:07:50.213Z,176.71
2023-04-22T00:08:50.222Z,173.26
2023-04-22T00:09:50.209Z,173.08
2023-04-22T00:10:50.207Z,176.96
2023-04-22T00:11:50.214Z,174.86
2023-04-22T00:12:50.200Z,174.90
2023-04-22T00:13:50.228Z,173.90
2023-04-22T00:14:50.222Z,171.05
2023-04-22T00:15:50.277Z,168.90
2023-04-22T00:16:50.235Z,170.97
2023-04-22T00:17:50.287Z,172.87
2023-04-22T00:18:50.224Z,172.87
2023-04-22T00:19:50.252Z,173.20
2023-04-22T00:20:50.254Z,175.57
2023-04-22T00:21:50.271Z,173.91
2023-04-22T00:22:50.260Z,171.30
2023-04-22T00:23:50.265Z,171.46
2023-04-22T00:24:50.272Z,172.62
2023-04-22T00:25:50.272Z,175.80
2023-04-22T00:26:50.270Z,175.83
2023-04-22T00:27:50.279Z,174.79
2023-04-22T00:28:50.287Z,174.43
2023-04-22T00:29:50.308Z,174.21
2023-04-22T00:30:50.310Z,174.80
2023-04-22T00:31:50.416Z,176.11
2023-04-22T00:32:50.525Z,176.72
2023-04-22T00:33:50.332Z,177.04
2023-04-22T00:34:50.355Z,178.62
2023-04-22T00:35:50.375Z,179.07
2023-04-22T00:36:50.355Z,176.53
2023-04-22T00:37:50.390Z,179.21
2023-04-22T00:38:50.375Z,178.80
2023-04-22T00:39:50.401Z,185.58
2023-04-22T00:40:50.399Z,187.12
2023-04-22T00:41:50.418Z,187.11
2023-04-22T00:42:50.398Z,185.29
2023-04-22T00:43:50.413Z,181.71
2023-04-22T00:44:50.413Z,182.38
2023-04-22T00:45:50.447Z,181.99
2023-04-22T00:46:50.518Z,181.24
2023-04-22T00:47:50.472Z,181.40
2023-04-22T00:48:50.448Z,182.20
2023-04-22T00:49:50.481Z,183.85
2023-04-22T00:50:50.493Z,180.51
2023-04-22T00:51:50.495Z,179.91
2023-04-22T00:52:50.497Z,181.91
2023-04-22T00:53:50.505Z,178.13
2023-04-22T00:54:50.509Z,174.02
2023-04-22T00:55:50.532Z,176.46
2023-04-22T00:56:50.543Z,180.71
2023-04-22T00:57:50.552Z,184.22
2023-04-22T00:58:50.554Z,181.27
2023-04-22T00:59:50.553Z,180.53
2023-04-22T01:00:50.617Z,180.74
2023-04-22T01:01:50.635Z,178.13
2023-04-22T01:02:50.672Z,178.93
2023-04-22T01:03:50.816Z,177.46
2023-04-22T01:04:50.598Z,178.69
2023-04-22T01:05:50.632Z,176.57
2023-04-22T01:06:50.619Z,176.37
2023-04-22T01:07:50.631Z,178.51
2023-04-22T01:08:50.646Z,179.95
2023-04-22T01:09:50.635Z,178.05
2023-04-22T01:10:50.670Z,179.44
2023-04-22T01:11:50.670Z,181.18
2023-04-22T01:12:50.649Z,178.83
2023-04-22T01:13:50.671Z,179.42
2023-04-22T01:14:50.682Z,182.74
2023-04-22T01:15:50.702Z,183.67
2023-04-22T01:16:50.698Z,184.99
2023-04-22T01:17:50.703Z,184.97
2023-04-22T01:18:50.705Z,185.26
2023-04-22T01:19:50.713Z,183.66
2023-04-22T01:20:50.712Z,185.73
2023-04-22T01:21:50.721Z,185.06
2023-04-22T01:22:50.713Z,186.49
2023-04-22T01:23:50.742Z,187.00
2023-04-22T01:24:50.734Z,188.13
2023-04-22T01:25:50.756Z,187.58
2023-04-22T01:26:50.775Z,186.34
2023-04-22T01:27:50.775Z,184.33
2023-04-22T01:28:50.773Z,184.62
2023-04-22T01:29:50.788Z,185.08
2023-04-22T01:30:50.787Z,184.69
2023-04-22T01:31:50.827Z,184.32
2023-04-22T01:32:50.886Z,179.56
2023-04-22T01:33:50.816Z,180.78
2023-04-22T01:34:50.834Z,181.69
2023-04-22T01:35:50.849Z,183.01
2023-04-22T01:36:50.860Z,180.50
2023-04-22T01:37:50.868Z,178.95
2023-04-22T01:38:50.890Z,180.20
2023-04-22T01:39:50.880Z,181.86
2023-04-22T01:40:50.888Z,183.32
2023-04-22T01:41:50.905Z,181.12
2023-04-22T01:42:50.923Z,183.50
2023-04-22T01:43:50.910Z,182.12
2023-04-22T01:44:50.938Z,179.23
2023-04-22T01:45:51.010Z,180.55
2023-04-22T01:46:50.975Z,181.15
2023-04-22T01:47:51.106Z,181.82
2023-04-22T01:48:50.972Z,177.87
2023-04-22T01:49:50.968Z,178.19
2023-04-22T01:50:51.008Z,176.49
2023-04-22T01:51:51.041Z,176.61
2023-04-22T01:52:51.011Z,179.63
2023-04-22T01:53:51.002Z,178.83
2023-04-22T01:54:51.042Z,177.37
2023-04-22T01:55:51.033Z,180.59
2023-04-22T01:56:51.025Z,179.88
2023-04-22T01:57:51.044Z,181.96
2023-04-22T01:58:51.054Z,179.63
2023-04-22T01:59:51.078Z,180.06
2023-04-22T02:00:51.147Z,180.85
2023-04-22T02:01:51.180Z,183.29
2023-04-22T02:02:51.167Z,181.84
2023-04-22T02:03:51.192Z,182.29
2023-04-22T02:04:51.137Z,186.22
2023-04-22T02:05:51.132Z,186.10
2023-04-22T02:06:51.169Z,185.10
2023-04-22T02:07:51.146Z,185.75
2023-04-22T02:08:51.165Z,183.10
2023-04-22T02:09:51.177Z,182.87
2023-04-22T02:10:51.190Z,184.40
2023-04-22T02:11:51.194Z,187.14
2023-04-22T02:12:51.213Z,187.42
2023-04-22T02:13:51.227Z,186.74
2023-04-22T02:14:51.240Z,187.91
2023-04-22T02:15:51.326Z,188.93
2023-04-22T02:16:51.253Z,189.82
2023-04-22T02:17:51.284Z,188.05
2023-04-22T02:18:51.276Z,188.25
2023-04-22T02:19:51.319Z,188.72
2023-04-22T02:20:51.319Z,190.15
2023-04-22T02:21:51.321Z,189.38
2023-04-22T02:22:51.340Z,191.58
2023-04-22T02:23:51.354Z,191.15
2023-04-22T02:24:51.353Z,190.25
2023-04-22T02:25:51.405Z,189.85
2023-04-22T02:26:51.370Z,191.90
2023-04-22T02:27:51.381Z,190.56
2023-04-22T02:28:51.405Z,192.83
2023-04-22T02:29:51.438Z,194.24
2023-04-22T02:30:51.422Z,194.30
2023-04-22T02:31:51.591Z,192.35
2023-04-22T02:32:51.500Z,192.93
2023-04-22T02:33:51.472Z,189.48
2023-04-22T02:34:51.484Z,189.73
2023-04-22T02:35:51.491Z,189.51
2023-04-22T02:36:51.516Z,189.96
2023-04-22T02:37:51.534Z,188.78
2023-04-22T02:38:51.540Z,189.91
2023-04-22T02:39:51.528Z,191.59
2023-04-22T02:40:51.549Z,190.30
2023-04-22T02:41:51.557Z,189.44
2023-04-22T02:42:51.563Z,189.78
2023-04-22T02:43:51.592Z,186.01
2023-04-22T02:44:51.590Z,186.34
2023-04-22T02:45:51.616Z,185.77
2023-04-22T02:46:51.667Z,188.43
2023-04-22T02:47:51.699Z,190.26
2023-04-22T02:48:51.634Z,190.16
2023-04-22T02:49:51.667Z,190.72
2023-04-22T02:50:51.674Z,191.75
2023-04-22T02:51:51.691Z,189.38
2023-04-22T02:52:51.684Z,191.56
2023-04-22T02:53:51.732Z,192.26
2023-04-22T02:54:51.708Z,191.62
2023-04-22T02:55:51.766Z,192.12
2023-04-22T02:56:51.737Z,191.61
2023-04-22T02:57:51.749Z,192.71
2023-04-22T02:58:51.764Z,190.90
2023-04-22T02:59:51.774Z,191.01
2023-04-22T03:00:51.813Z,194.16
2023-04-22T03:01:51.818Z,195.97
2023-04-22T03:02:51.957Z,192.20
2023-04-22T03:03:51.884Z,193.64
2023-04-22T03:04:51.844Z,194.41
2023-04-22T03:05:51.836Z,194.75
2023-04-22T03:06:51.844Z,196.32
2023-04-22T03:07:51.873Z,194.53
2023-04-22T03:08:51.871Z,194.03
2023-04-22T03:09:51.876Z,193.64
2023-04-22T03:10:51.915Z,193.30
2023-04-22T03:11:51.927Z,194.91
2023-04-22T03:12:51.922Z,195.17
2023-04-22T03:13:51.936Z,195.17
2023-04-22T03:14:51.987Z,194.26
2023-04-22T03:15:52.008Z,197.04
2023-04-22T03:16:52.093Z,197.23
2023-04-22T03:17:52.043Z,193.98
2023-04-22T03:18:52.023Z,192.51
2023-04-22T03:19:52.021Z,194.03
2023-04-22T03:20:52.039Z,194.19
2023-04-22T03:21:52.060Z,194.97
2023-04-22T03:22:52.088Z,194.15
2023-04-22T03:23:52.106Z,194.53
2023-04-22T03:24:52.117Z,194.73
2023-04-22T03:25:52.114Z,196.09
2023-04-22T03:26:52.142Z,193.84
2023-04-22T03:27:52.151Z,195.14
2023-04-22T03:28:52.160Z,194.89
2023-04-22T03:29:52.190Z,191.66
2023-04-22T03:30:52.205Z,193.41
2023-04-22T03:31:52.258Z,194.11
2023-04-22T03:32:52.260Z,194.36
2023-04-22T03:33:52.234Z,195.73
2023-04-22T03:34:52.257Z,195.55
2023-04-22T03:35:52.287Z,194.42
2023-04-22T03:36:52.298Z,192.56
2023-04-22T03:37:52.304Z,192.84
2023-04-22T03:38:52.312Z,195.00
2023-04-22T03:39:52.325Z,194.70
2023-04-22T03:40:52.369Z,192.18
2023-04-22T03:41:52.381Z,189.47
2023-04-22T03:42:52.420Z,189.51
2023-04-22T03:43:52.421Z,191.69
2023-04-22T03:44:52.423Z,194.58
2023-04-22T03:45:52.510Z,192.62
2023-04-22T03:46:52.432Z,194.27
2023-04-22T03:47:52.509Z,196.08
2023-04-22T03:48:52.473Z,196.36
2023-04-22T03:49:52.476Z,194.85
2023-04-22T03:50:52.504Z,193.08
2023-04-22T03:51:52.530Z,195.07
2023-04-22T03:52:52.520Z,195.38
2023-04-22T03:53:52.566Z,196.74
2023-04-22T03:54:52.587Z,198.09
2023-04-22T03:55:52.627Z,195.88
2023-04-22T03:56:52.600Z,196.71
2023-04-22T03:57:52.638Z,197.09
2023-04-22T03:58:52.640Z,198.18
2023-04-22T03:59:52.647Z,197.08
2023-04-22T04:00:52.689Z,196.78
2023-04-22T04:01:52.712Z,195.97
2023-04-22T04:02:52.857Z,198.49
2023-04-22T04:03:53.059Z,198.73
2023-04-22T04:04:53.039Z,197.76
2023-04-22T04:05:52.815Z,194.85
2023-04-22T04:06:52.801Z,200.53
2023-04-22T04:07:52.795Z,202.22
2023-04-22T04:08:52.830Z,202.84
2023-04-22T04:09:52.851Z,201.07
2023-04-22T04:10:52.867Z,198.39
2023-04-22T04:11:52.882Z,195.35
2023-04-22T04:12:52.880Z,191.47
2023-04-22T04:13:52.965Z,195.06
2023-04-22T04:14:52.917Z,195.77
2023-04-22T04:15:52.987Z,197.84
2023-04-22T04:16:52.974Z,197.91
2023-04-22T04:17:53.021Z,199.71
2023-04-22T04:18:53.008Z,200.33
2023-04-22T04:19:53.015Z,197.05
2023-04-22T04:20:53.040Z,198.83
2023-04-22T04:21:53.087Z,197.05
2023-04-22T04:22:53.090Z,199.78
2023-04-22T04:23:53.101Z,201.55
2023-04-22T04:24:53.123Z,199.67
2023-04-22T04:25:53.130Z,199.74
2023-04-22T04:26:53.161Z,200.36
2023-04-22T04:27:53.179Z,200.08
2023-04-22T04:28:53.193Z,202.82
2023-04-22T04:29:53.212Z,201.63
2023-04-22T04:30:53.264Z,202.80
2023-04-22T04:31:53.278Z,202.88
2023-04-22T04:32:53.288Z,203.18
2023-04-22T04:33:53.924Z,203.84
2023-04-22T04:34:53.292Z,205.54
2023-04-22T04:35:53.308Z,204.89
2023-04-22T04:36:53.326Z,203.08
2023-04-22T04:37:53.321Z,205.81
2023-04-22T04:38:55.191Z,205.14
2023-04-22T04:39:53.381Z,204.09
2023-04-22T04:40:53.382Z,205.02
2023-04-22T04:41:53.418Z,204.93
2023-04-22T04:42:53.450Z,205.67
2023-04-22T04:43:53.441Z,207.16
2023-04-22T04:44:53.447Z,209.45
2023-04-22T04:45:53.520Z,209.20
2023-04-22T04:46:53.536Z,208.71
2023-04-22T04:47:53.594Z,209.62
2023-04-22T04:48:53.523Z,209.51
2023-04-22T04:49:53.562Z,208.02
2023-04-22T04:50:53.566Z,207.11
2023-04-22T04:51:53.596Z,209.45
2023-04-22T04:52:53.610Z,209.71
2023-04-22T04:53:53.635Z,209.10
2023-04-22T04:54:53.641Z,206.76
2023-04-22T04:55:53.671Z,206.95
2023-04-22T04:56:53.687Z,207.82
2023-04-22T04:57:53.710Z,208.81
2023-04-22T04:58:53.745Z,208.97
2023-04-22T04:59:53.740Z,209.73
2023-04-22T05:00:53.754Z,209.90
2023-04-22T05:01:53.808Z,208.33
2023-04-22T05:02:53.950Z,206.19
2023-04-22T05:03:53.929Z,207.80
2023-04-22T05:04:53.859Z,206.41
2023-04-22T05:05:53.860Z,204.30
2023-04-22T05:06:53.849Z,203.03
2023-04-22T05:07:53.909Z,204.88
2023-04-22T05:08:53.856Z,205.12
2023-04-22T05:09:53.877Z,206.91
2023-04-22T05:10:53.894Z,204.19
2023-04-22T05:11:53.877Z,207.28
2023-04-22T05:12:53.883Z,213.12
2023-04-22T05:13:53.887Z,214.12
2023-04-22T05:14:53.890Z,214.67
2023-04-22T05:15:53.874Z,216.52
2023-04-22T05:16:53.964Z,217.63
2023-04-22T05:17:53.993Z,217.13
2023-04-22T05:18:53.884Z,216.04
2023-04-22T05:19:54.054Z,217.38
2023-04-22T05:20:53.926Z,218.99
2023-04-22T05:21:53.888Z,215.11
2023-04-22T05:22:53.938Z,212.19
2023-04-22T05:23:53.969Z,212.03
2023-04-22T05:24:54.013Z,211.13
2023-04-22T05:25:54.045Z,212.28
2023-04-22T05:26:54.083Z,212.49
2023-04-22T05:27:54.150Z,212.01
2023-04-22T05:28:54.173Z,214.87
2023-04-22T05:29:54.210Z,213.77
2023-04-22T05:30:54.264Z,214.70
2023-04-22T05:31:54.304Z,217.87
2023-04-22T05:32:54.302Z,217.50
2023-04-22T05:33:54.328Z,220.40
2023-04-22T05:34:54.357Z,220.27
2023-04-22T05:35:54.408Z,220.68
2023-04-22T05:36:54.418Z,221.35
2023-04-22T05:37:54.449Z,223.81
2023-04-22T05:38:54.489Z,224.81
2023-04-22T05:39:54.528Z,224.72
2023-04-22T05:40:54.548Z,226.28
2023-04-22T05:41:54.576Z,224.97
2023-04-22T05:42:54.612Z,224.47
2023-04-22T05:43:54.635Z,224.98
2023-04-22T05:44:54.679Z,224.83
2023-04-22T05:45:54.766Z,226.45
2023-04-22T05:46:54.741Z,226.23
2023-04-22T05:47:54.821Z,228.43
2023-04-22T05:48:54.873Z,228.66
2023-04-22T05:49:54.867Z,226.72
2023-04-22T05:50:54.927Z,228.95
2023-04-22T05:51:54.974Z,227.95
2023-04-22T05:52:55.057Z,226.62
2023-04-22T05:53:55.092Z,227.77
2023-04-22T05:54:55.166Z,228.40
2023-04-22T05:55:55.230Z,228.49
2023-04-22T05:56:55.264Z,227.52
2023-04-22T05:57:55.311Z,226.94
2023-04-22T05:58:55.384Z,226.79
2023-04-22T05:59:55.440Z,226.88
2023-04-22T06:00:55.480Z,227.82
2023-04-22T06:01:55.539Z,229.41
2023-04-22T06:02:55.661Z,230.16
2023-04-22T06:03:55.872Z,230.00
2023-04-22T06:04:55.903Z,229.56
2023-04-22T06:05:55.927Z,229.66
2023-04-22T06:06:55.785Z,230.65
2023-04-22T06:07:55.857Z,231.85
2023-04-22T06:08:55.911Z,231.53
2023-04-22T06:10:04.007Z,230.63
2023-04-22T06:10:56.964Z,230.73
2023-04-22T06:11:55.927Z,231.02
2023-04-22T06:12:55.935Z,231.63
2023-04-22T06:13:55.918Z,232.19
2023-04-22T06:14:55.908Z,233.09
2023-04-22T06:15:55.932Z,232.57
2023-04-22T06:16:55.896Z,232.69
2023-04-22T06:17:55.922Z,232.72
2023-04-22T06:18:55.900Z,232.56
2023-04-22T06:19:55.976Z,233.25
2023-04-22T06:20:56.058Z,231.69
2023-04-22T06:21:56.087Z,232.72
2023-04-22T06:22:56.157Z,231.91
2023-04-22T06:23:56.252Z,230.75
2023-04-22T06:24:56.264Z,231.79
2023-04-22T06:25:56.350Z,231.80
2023-04-22T06:26:56.395Z,230.39
2023-04-22T06:27:56.471Z,230.27
2023-04-22T06:28:56.520Z,231.23
2023-04-22T06:29:56.568Z,231.43
2023-04-22T06:30:56.702Z,230.85
2023-04-22T06:31:56.686Z,230.53
2023-04-22T06:32:56.810Z,231.31
2023-04-22T06:33:56.798Z,230.72
2023-04-22T06:34:56.852Z,231.36
2023-04-22T06:35:56.923Z,233.08
2023-04-22T06:36:56.964Z,232.82
2023-04-22T06:37:57.021Z,234.45
2023-04-22T06:38:57.069Z,233.22
2023-04-22T06:39:57.119Z,233.12
2023-04-22T06:40:57.174Z,232.10
2023-04-22T06:41:57.248Z,233.53
2023-04-22T06:42:57.281Z,233.02
2023-04-22T06:43:57.346Z,233.72
2023-04-22T06:44:57.368Z,234.35
2023-04-22T06:45:57.440Z,234.90
2023-04-22T06:46:58.274Z,234.37
2023-04-22T06:47:57.599Z,233.90
2023-04-22T06:48:57.612Z,234.09
2023-04-22T06:49:57.646Z,234.40
2023-04-22T06:50:57.703Z,233.67
2023-04-22T06:51:57.744Z,233.76
2023-04-22T06:52:57.788Z,234.71
2023-04-22T06:53:57.820Z,233.06
2023-04-22T06:54:57.875Z,234.80
2023-04-22T06:55:57.916Z,233.18
2023-04-22T06:56:57.996Z,233.75
2023-04-22T06:57:58.029Z,233.63
2023-04-22T06:58:58.057Z,233.07
2023-04-22T06:59:58.167Z,233.52
2023-04-22T07:00:58.149Z,232.69
2023-04-22T07:01:58.230Z,232.95
2023-04-22T07:02:58.305Z,231.58
2023-04-22T07:03:58.349Z,233.20
2023-04-22T07:04:58.293Z,232.46
2023-04-22T07:05:58.360Z,233.29
2023-04-22T07:06:58.370Z,232.61
2023-04-22T07:07:58.432Z,232.76
2023-04-22T07:08:58.453Z,233.26
2023-04-22T07:09:58.496Z,233.30
2023-04-22T07:10:58.546Z,233.70
2023-04-22T07:11:58.587Z,233.48
2023-04-22T07:12:58.649Z,233.15
2023-04-22T07:13:58.653Z,232.08
2023-04-22T07:14:58.686Z,230.92
2023-04-22T07:15:58.773Z,231.69
2023-04-22T07:16:58.767Z,231.18
2023-04-22T07:17:58.804Z,230.54
2023-04-22T07:18:58.805Z,232.56
2023-04-22T07:19:58.868Z,231.32
2023-04-22T07:20:58.900Z,230.96
2023-04-22T07:21:58.896Z,231.54
2023-04-22T07:22:58.927Z,230.27
2023-04-22T07:23:58.978Z,230.35
2023-04-22T07:24:58.986Z,230.21
2023-04-22T07:25:59.021Z,231.13
2023-04-22T07:26:59.050Z,231.49
2023-04-22T07:27:59.087Z,231.79
2023-04-22T07:28:59.105Z,230.82
2023-04-22T07:29:59.139Z,229.56
2023-04-22T07:30:59.165Z,228.50
2023-04-22T07:31:59.241Z,229.42
2023-04-22T07:32:59.266Z,229.75
2023-04-22T07:33:59.240Z,229.55
2023-04-22T07:34:59.270Z,227.90
2023-04-22T07:35:59.326Z,227.06
2023-04-22T07:36:59.311Z,226.03
2023-04-22T07:37:59.362Z,224.42
2023-04-22T07:38:59.385Z,224.35
2023-04-22T07:39:59.367Z,223.26
2023-04-22T07:40:59.394Z,222.44
2023-04-22T07:41:59.428Z,221.17
2023-04-22T07:42:59.432Z,220.33
2023-04-22T07:43:59.471Z,219.68
2023-04-22T07:44:59.499Z,220.95
2023-04-22T07:45:59.543Z,220.59
2023-04-22T07:46:59.526Z,221.07
2023-04-22T07:47:59.605Z,220.50
2023-04-22T07:48:59.576Z,218.59
2023-04-22T07:49:59.575Z,218.11
2023-04-22T07:50:59.600Z,218.51
2023-04-22T07:51:59.612Z,217.30
2023-04-22T07:52:59.643Z,215.56
2023-04-22T07:53:59.653Z,214.67
2023-04-22T07:54:59.666Z,214.81
2023-04-22T07:56:02.029Z,213.95
2023-04-22T07:56:59.735Z,212.41
2023-04-22T07:57:59.747Z,209.96
2023-04-22T07:58:59.749Z,209.31
2023-04-22T07:59:59.784Z,209.25
2023-04-22T08:00:59.914Z,209.64
2023-04-22T08:01:59.866Z,207.63
2023-04-22T08:02:59.916Z,208.09
2023-04-22T08:04:00.108Z,208.91
2023-04-22T08:04:59.926Z,206.33
2023-04-22T08:05:59.900Z,205.20
2023-04-22T08:07:01.858Z,204.84
2023-04-22T08:07:59.928Z,205.17
2023-04-22T08:08:59.932Z,204.87
2023-04-22T08:09:59.897Z,203.74
2023-04-22T08:10:59.914Z,202.43
2023-04-22T08:11:59.900Z,201.71
2023-04-22T08:12:59.912Z,200.13
2023-04-22T08:13:59.872Z,198.91
2023-04-22T08:14:59.872Z,198.63
2023-04-22T08:15:59.893Z,199.59
2023-04-22T08:16:59.896Z,198.08
2023-04-22T08:17:59.877Z,196.45
2023-04-22T08:18:59.854Z,196.26
2023-04-22T08:19:59.848Z,196.23
2023-04-22T08:20:59.836Z,197.39
2023-04-22T08:21:59.840Z,196.76
2023-04-22T08:22:59.852Z,197.27
2023-04-22T08:23:59.838Z,194.92
2023-04-22T08:24:59.823Z,195.45
2023-04-22T08:25:59.796Z,194.87
2023-04-22T08:26:59.800Z,194.88
2023-04-22T08:27:59.798Z,193.78
2023-04-22T08:28:59.778Z,194.34
2023-04-22T08:29:59.772Z,194.66
2023-04-22T08:30:59.841Z,192.93
2023-04-22T08:31:59.804Z,192.95
2023-04-22T08:32:59.802Z,189.73
2023-04-22T08:33:59.754Z,190.61
2023-04-22T08:35:04.689Z,192.27
2023-04-22T08:36:00.731Z,192.34
2023-04-22T08:36:59.725Z,190.11
2023-04-22T08:37:59.704Z,188.58
2023-04-22T08:38:59.704Z,188.91
2023-04-22T08:39:59.711Z,187.67
2023-04-22T08:40:59.686Z,187.48
2023-04-22T08:41:59.704Z,187.64
2023-04-22T08:42:59.673Z,187.00
2023-04-22T08:43:59.672Z,185.01
2023-04-22T08:44:59.663Z,182.36
2023-04-22T08:45:59.664Z,182.56
2023-04-22T08:47:00.866Z,180.29
2023-04-22T08:47:59.694Z,180.92
2023-04-22T08:48:59.650Z,182.13
2023-04-22T08:49:59.634Z,179.56
2023-04-22T08:50:59.654Z,180.94
2023-04-22T08:51:59.623Z,179.91
2023-04-22T08:52:59.624Z,177.42
2023-04-22T08:53:59.622Z,175.93
2023-04-22T08:54:59.614Z,177.49
2023-04-22T08:55:59.613Z,176.18
2023-04-22T08:56:59.573Z,176.06
2023-04-22T08:57:59.587Z,174.78
2023-04-22T08:58:59.562Z,176.01
2023-04-22T08:59:59.575Z,174.92
2023-04-22T09:00:59.564Z,171.48
2023-04-22T09:01:59.588Z,170.52
2023-04-22T09:02:59.652Z,170.64
2023-04-22T09:03:59.604Z,169.52
2023-04-22T09:04:59.539Z,170.20
2023-04-22T09:05:59.522Z,169.68
2023-04-22T09:06:59.526Z,168.82
2023-04-22T09:07:59.532Z,168.18
2023-04-22T09:08:59.513Z,169.03
2023-04-22T09:09:59.493Z,168.56
2023-04-22T09:10:59.491Z,168.30
2023-04-22T09:11:59.490Z,168.26
2023-04-22T09:12:59.466Z,168.38
2023-04-22T09:13:59.491Z,167.07
2023-04-22T09:14:59.475Z,166.06
2023-04-22T09:16:00.073Z,166.16
2023-04-22T09:16:59.446Z,164.29
2023-04-22T09:17:59.485Z,165.74
2023-04-22T09:18:59.418Z,165.31
2023-04-22T09:19:59.423Z,160.97
2023-04-22T09:20:59.429Z,160.91
2023-04-22T09:21:59.417Z,162.62
2023-04-22T09:22:59.419Z,162.88
2023-04-22T09:23:59.388Z,162.31
2023-04-22T09:24:59.385Z,162.31
2023-04-22T09:25:59.388Z,162.39
2023-04-22T09:26:59.367Z,160.79
2023-04-22T09:27:59.415Z,161.43
2023-04-22T09:28:59.368Z,159.29
2023-04-22T09:29:59.349Z,158.34
2023-04-22T09:30:59.357Z,161.14
2023-04-22T09:31:59.412Z,161.47
2023-04-22T09:32:59.397Z,160.63
2023-04-22T09:33:59.341Z,161.29
2023-04-22T09:34:59.334Z,161.29
2023-04-22T09:35:59.439Z,161.91
2023-04-22T09:36:59.369Z,159.77
2023-04-22T09:37:59.320Z,157.19
2023-04-22T09:38:59.286Z,157.52
2023-04-22T09:39:59.291Z,158.16
2023-04-22T09:40:59.279Z,157.54
2023-04-22T09:41:59.265Z,158.19
2023-04-22T09:42:59.255Z,158.34
2023-04-22T09:43:59.263Z,158.38
2023-04-22T09:45:01.271Z,160.56
2023-04-22T09:45:59.510Z,160.33
2023-04-22T09:46:59.497Z,156.98
2023-04-22T09:47:59.615Z,155.84
2023-04-22T09:48:59.591Z,153.77
2023-04-22T09:49:59.626Z,153.06
2023-04-22T09:50:59.700Z,152.99
2023-04-22T09:51:59.715Z,152.94
2023-04-22T09:52:59.750Z,151.95
2023-04-22T09:53:59.805Z,151.28
2023-04-22T09:54:59.818Z,153.34
2023-04-22T09:55:59.853Z,153.47
2023-04-22T09:56:59.892Z,153.68
2023-04-22T09:57:59.934Z,152.66
2023-04-22T09:58:59.956Z,152.39
2023-04-22T10:00:00.000Z,150.34
2023-04-22T10:01:00.102Z,150.10
2023-04-22T10:02:00.079Z,150.06
2023-04-22T10:03:00.195Z,149.25
2023-04-22T10:04:00.214Z,148.51
2023-04-22T10:05:00.178Z,146.48
2023-04-22T10:06:00.241Z,145.58
2023-04-22T10:07:00.254Z,145.49
2023-04-22T10:08:00.362Z,146.29
2023-04-22T10:09:00.338Z,146.85
2023-04-22T10:10:00.356Z,146.06
2023-04-22T10:11:00.408Z,147.62
2023-04-22T10:12:00.430Z,146.44
2023-04-22T10:13:00.468Z,145.95
2023-04-22T10:14:00.526Z,145.77
2023-04-22T10:15:00.558Z,145.91
2023-04-22T10:16:00.597Z,142.92
2023-04-22T10:17:00.653Z,144.10
2023-04-22T10:18:00.693Z,144.77
2023-04-22T10:19:00.711Z,146.02
2023-04-22T10:20:00.743Z,145.61
2023-04-22T10:21:00.789Z,144.94
2023-04-22T10:22:00.831Z,144.93
2023-04-22T10:23:00.858Z,144.75
2023-04-22T10:24:00.919Z,145.25
2023-04-22T10:25:00.909Z,145.40
2023-04-22T10:26:00.963Z,141.41
2023-04-22T10:27:00.992Z,144.07
2023-04-22T10:28:01.027Z,142.30
2023-04-22T10:29:01.048Z,140.57
2023-04-22T10:30:01.094Z,139.66
2023-04-22T10:31:01.168Z,136.53
2023-04-22T10:32:01.176Z,132.20
2023-04-22T10:33:01.244Z,135.80
2023-04-22T10:34:01.233Z,134.63
2023-04-22T10:35:01.278Z,132.55
2023-04-22T10:36:01.309Z,137.48
2023-04-22T10:37:01.349Z,138.85
2023-04-22T10:38:01.391Z,132.79
2023-04-22T10:39:01.418Z,131.96
2023-04-22T10:40:01.469Z,122.50
2023-04-22T10:41:01.528Z,122.61
2023-04-22T10:42:01.545Z,134.54
2023-04-22T10:43:01.581Z,132.16
2023-04-22T10:44:01.639Z,133.11
2023-04-22T10:45:01.657Z,137.57
2023-04-22T10:46:01.761Z,136.95
2023-04-22T10:47:01.742Z,116.27
2023-04-22T10:48:01.790Z,110.61
2023-04-22T10:49:01.805Z,123.22
2023-04-22T10:50:01.837Z,116.00
2023-04-22T10:51:01.888Z,115.19
2023-04-22T10:52:01.902Z,126.39
2023-04-22T10:53:01.948Z,119.74
2023-04-22T10:54:01.986Z,110.37
2023-04-22T10:55:02.019Z,116.19
2023-04-22T10:56:02.065Z,126.84
2023-04-22T10:57:02.177Z,126.72
2023-04-22T10:58:02.120Z,127.56
2023-04-22T10:59:02.178Z,115.08
2023-04-22T11:00:02.211Z,112.05
2023-04-22T11:01:02.256Z,114.08
2023-04-22T11:02:02.284Z,114.79
2023-04-22T11:03:02.409Z,122.62
2023-04-22T11:04:02.447Z,115.69
2023-04-22T11:05:02.363Z,114.10
2023-04-22T11:06:02.424Z,113.17
2023-04-22T11:07:02.454Z,111.74
2023-04-22T11:08:02.483Z,106.41
2023-04-22T11:09:02.524Z,109.71
2023-04-22T11:10:02.577Z,110.48
2023-04-22T11:11:02.589Z,106.55
2023-04-22T11:12:02.622Z,108.90
2023-04-22T11:13:02.665Z,105.49
2023-04-22T11:14:02.714Z,94.17
2023-04-22T11:15:02.763Z,95.70
2023-04-22T11:16:02.805Z,96.71
2023-04-22T11:17:02.821Z,102.32
2023-04-22T11:18:02.930Z,99.98
2023-04-22T11:19:02.899Z,94.71
2023-04-22T11:20:02.941Z,93.84
2023-04-22T11:21:03.000Z,87.73
2023-04-22T11:22:03.045Z,90.64
2023-04-22T11:23:03.079Z,96.80
2023-04-22T11:24:03.127Z,97.69
2023-04-22T11:25:03.160Z,99.31
2023-04-22T11:26:03.236Z,100.19
2023-04-22T11:27:03.237Z,97.94
2023-04-22T11:28:03.276Z,101.00
2023-04-22T11:29:03.344Z,97.46
2023-04-22T11:30:03.387Z,97.69
2023-04-22T11:31:03.465Z,98.07
2023-04-22T11:32:03.502Z,91.87
2023-04-22T11:33:03.532Z,83.31
2023-04-22T11:34:03.554Z,79.43
2023-04-22T11:35:03.609Z,78.89
2023-04-22T11:36:03.665Z,85.57
2023-04-22T11:37:03.712Z,85.99
2023-04-22T11:38:03.754Z,90.47
2023-04-22T11:39:03.780Z,82.46
2023-04-22T11:41:03.849Z,80.07
2023-04-22T11:42:03.809Z,76.25
2023-04-22T11:43:03.800Z,66.31
2023-04-22T11:44:03.802Z,65.84
2023-04-22T11:45:03.808Z,74.57
2023-04-22T11:46:03.839Z,71.82
2023-04-22T11:47:03.792Z,69.54
2023-04-22T11:48:03.773Z,62.36
2023-04-22T11:49:03.772Z,67.55
2023-04-22T11:50:03.791Z,72.22
2023-04-22T11:51:03.749Z,73.00
2023-04-22T11:52:03.756Z,73.26
2023-04-22T11:53:03.739Z,72.93
2023-04-22T11:54:03.725Z,64.82
2023-04-22T11:55:03.714Z,66.64
2023-04-22T11:56:03.749Z,65.18
2023-04-22T11:57:03.702Z,59.07
2023-04-22T11:58:03.688Z,65.22
2023-04-22T11:59:03.693Z,64.89
2023-04-22T12:00:03.702Z,68.31
2023-04-22T12:01:03.691Z,69.43
2023-04-22T12:02:03.719Z,68.98
2023-04-22T12:03:03.733Z,69.34
2023-04-22T12:04:03.885Z,64.23
2023-04-22T12:05:03.704Z,63.01
2023-04-22T12:06:03.646Z,57.78
2023-04-22T12:07:03.637Z,48.97
2023-04-22T12:08:03.645Z,46.52
2023-04-22T12:09:03.616Z,50.42
2023-04-22T12:10:03.617Z,54.51
2023-04-22T12:11:03.654Z,52.27
2023-04-22T12:12:03.600Z,46.09
2023-04-22T12:13:03.587Z,53.36
2023-04-22T12:14:03.594Z,54.62
2023-04-22T12:15:03.601Z,49.33
2023-04-22T12:16:03.591Z,51.31
2023-04-22T12:17:03.622Z,53.40
2023-04-22T12:18:03.590Z,41.97
2023-04-22T12:19:03.574Z,44.86
2023-04-22T12:20:03.550Z,45.19
2023-04-22T12:21:03.598Z,45.30
2023-04-22T12:22:03.557Z,50.01
2023-04-22T12:23:03.534Z,56.13
2023-04-22T12:24:03.557Z,51.66
2023-04-22T12:25:03.550Z,36.02
2023-04-22T12:26:03.576Z,35.21
2023-04-22T12:27:03.656Z,34.79
2023-04-22T12:28:03.560Z,37.39
2023-04-22T12:29:03.600Z,52.32
2023-04-22T12:30:03.648Z,50.16
2023-04-22T12:31:03.772Z,52.92
2023-04-22T12:32:03.731Z,63.79